sensor_id;sensor_type;location;lat;lon;timestamp;P1;durP1;ratioP1;P2;durP2;ratioP2
27893;SDS011;15240;50.812;4.792;2024-02-15T00:00:51;19.13;;;8.30;;
27893;SDS011;15240;50.812;4.792;2024-02-15T00:03:18;18.23;;;8.43;;
27893;SDS011;15240;50.812;4.792;2024-02-15T00:05:45;21.50;;;8.60;;
27893;SDS011;15240;50.812;4.792;2024-02-15T00:08:11;21.43;;;8.77;;
27893;SDS011;15240;50.812;4.792;2024-02-15T00:10:38;21.90;;;8.10;;
27893;SDS011;15240;50.812;4.792;2024-02-15T00:13:04;19.80;;;8.23;;
27893;SDS011;15240;50.812;4.792;2024-02-15T00:15:31;23.90;;;8.00;;
27893;SDS011;15240;50.812;4.792;2024-02-15T00:18:00;22.93;;;8.20;;
27893;SDS011;15240;50.812;4.792;2024-02-15T00:20:28;22.70;;;8.27;;
27893;SDS011;15240;50.812;4.792;2024-02-15T00:22:54;20.83;;;7.87;;
27893;SDS011;15240;50.812;4.792;2024-02-15T00:25:21;22.37;;;7.53;;
27893;SDS011;15240;50.812;4.792;2024-02-15T00:27:47;18.70;;;7.23;;
27893;SDS011;15240;50.812;4.792;2024-02-15T00:30:13;20.63;;;7.20;;
27893;SDS011;15240;50.812;4.792;2024-02-15T00:32:41;16.17;;;7.07;;
27893;SDS011;15240;50.812;4.792;2024-02-15T00:35:09;16.53;;;7.07;;
27893;SDS011;15240;50.812;4.792;2024-02-15T00:37:35;16.93;;;7.03;;
27893;SDS011;15240;50.812;4.792;2024-02-15T00:43:05;17.60;;;6.90;;
27893;SDS011;15240;50.812;4.792;2024-02-15T00:45:31;13.10;;;6.43;;
27893;SDS011;15240;50.812;4.792;2024-02-15T00:47:57;14.67;;;6.60;;
27893;SDS011;15240;50.812;4.792;2024-02-15T00:50:23;15.07;;;5.90;;
27893;SDS011;15240;50.812;4.792;2024-02-15T00:52:49;14.50;;;6.57;;
27893;SDS011;15240;50.812;4.792;2024-02-15T00:55:15;18.60;;;6.43;;
27893;SDS011;15240;50.812;4.792;2024-02-15T00:57:42;16.60;;;5.90;;
27893;SDS011;15240;50.812;4.792;2024-02-15T01:00:08;15.20;;;6.07;;
27893;SDS011;15240;50.812;4.792;2024-02-15T01:02:35;18.70;;;6.20;;
27893;SDS011;15240;50.812;4.792;2024-02-15T01:05:01;18.50;;;6.40;;
27893;SDS011;15240;50.812;4.792;2024-02-15T01:07:29;19.97;;;6.83;;
27893;SDS011;15240;50.812;4.792;2024-02-15T01:09:55;19.00;;;6.57;;
27893;SDS011;15240;50.812;4.792;2024-02-15T01:12:21;13.13;;;5.80;;
27893;SDS011;15240;50.812;4.792;2024-02-15T01:17:51;18.03;;;5.70;;
27893;SDS011;15240;50.812;4.792;2024-02-15T01:20:17;17.80;;;5.43;;
27893;SDS011;15240;50.812;4.792;2024-02-15T01:22:43;15.17;;;4.53;;
27893;SDS011;15240;50.812;4.792;2024-02-15T01:25:09;16.37;;;5.10;;
27893;SDS011;15240;50.812;4.792;2024-02-15T01:27:36;12.40;;;4.60;;
27893;SDS011;15240;50.812;4.792;2024-02-15T01:30:02;12.53;;;3.83;;
27893;SDS011;15240;50.812;4.792;2024-02-15T01:32:29;13.63;;;3.60;;
27893;SDS011;15240;50.812;4.792;2024-02-15T01:34:56;11.73;;;4.20;;
27893;SDS011;15240;50.812;4.792;2024-02-15T01:40:27;13.77;;;4.23;;
27893;SDS011;15240;50.812;4.792;2024-02-15T01:42:53;12.40;;;3.93;;
27893;SDS011;15240;50.812;4.792;2024-02-15T01:45:20;11.93;;;4.00;;
27893;SDS011;15240;50.812;4.792;2024-02-15T01:50:52;12.70;;;4.00;;
27893;SDS011;15240;50.812;4.792;2024-02-15T01:53:19;9.20;;;3.30;;
27893;SDS011;15240;50.812;4.792;2024-02-15T01:55:45;11.57;;;3.50;;
27893;SDS011;15240;50.812;4.792;2024-02-15T01:58:11;9.77;;;3.07;;
27893;SDS011;15240;50.812;4.792;2024-02-15T02:03:22;8.73;;;3.37;;
27893;SDS011;15240;50.812;4.792;2024-02-15T02:05:48;9.90;;;3.13;;
27893;SDS011;15240;50.812;4.792;2024-02-15T02:08:14;12.27;;;3.13;;
27893;SDS011;15240;50.812;4.792;2024-02-15T02:10:41;8.50;;;3.03;;
27893;SDS011;15240;50.812;4.792;2024-02-15T02:13:07;11.67;;;3.10;;
27893;SDS011;15240;50.812;4.792;2024-02-15T02:18:38;8.83;;;2.87;;
27893;SDS011;15240;50.812;4.792;2024-02-15T02:21:05;8.37;;;3.17;;
27893;SDS011;15240;50.812;4.792;2024-02-15T02:23:31;14.43;;;3.40;;
27893;SDS011;15240;50.812;4.792;2024-02-15T02:29:03;12.83;;;3.40;;
27893;SDS011;15240;50.812;4.792;2024-02-15T02:34:43;10.93;;;3.40;;
27893;SDS011;15240;50.812;4.792;2024-02-15T02:40:13;10.93;;;2.70;;
27893;SDS011;15240;50.812;4.792;2024-02-15T02:42:49;7.77;;;2.93;;
27893;SDS011;15240;50.812;4.792;2024-02-15T02:45:16;8.67;;;2.70;;
27893;SDS011;15240;50.812;4.792;2024-02-15T02:47:44;9.67;;;2.77;;
27893;SDS011;15240;50.812;4.792;2024-02-15T02:50:10;7.83;;;2.50;;
27893;SDS011;15240;50.812;4.792;2024-02-15T02:52:36;6.07;;;2.93;;
27893;SDS011;15240;50.812;4.792;2024-02-15T02:55:04;13.77;;;3.30;;
27893;SDS011;15240;50.812;4.792;2024-02-15T02:57:34;9.83;;;2.90;;
27893;SDS011;15240;50.812;4.792;2024-02-15T03:00:02;9.50;;;2.90;;
27893;SDS011;15240;50.812;4.792;2024-02-15T03:02:35;10.43;;;3.13;;
27893;SDS011;15240;50.812;4.792;2024-02-15T03:05:02;8.73;;;2.90;;
27893;SDS011;15240;50.812;4.792;2024-02-15T03:07:29;7.93;;;2.57;;
27893;SDS011;15240;50.812;4.792;2024-02-15T03:09:55;9.33;;;2.57;;
27893;SDS011;15240;50.812;4.792;2024-02-15T03:12:21;6.47;;;2.73;;
27893;SDS011;15240;50.812;4.792;2024-02-15T03:14:47;7.50;;;2.80;;
27893;SDS011;15240;50.812;4.792;2024-02-15T03:17:13;10.17;;;2.73;;
27893;SDS011;15240;50.812;4.792;2024-02-15T03:19:39;10.10;;;2.87;;
27893;SDS011;15240;50.812;4.792;2024-02-15T03:22:06;8.70;;;2.70;;
27893;SDS011;15240;50.812;4.792;2024-02-15T03:24:32;6.90;;;2.70;;
27893;SDS011;15240;50.812;4.792;2024-02-15T03:26:58;10.30;;;2.90;;
27893;SDS011;15240;50.812;4.792;2024-02-15T03:29:25;9.97;;;2.70;;
27893;SDS011;15240;50.812;4.792;2024-02-15T03:31:51;14.13;;;2.90;;
27893;SDS011;15240;50.812;4.792;2024-02-15T03:37:22;6.17;;;2.60;;
27893;SDS011;15240;50.812;4.792;2024-02-15T03:39:48;6.97;;;2.77;;
27893;SDS011;15240;50.812;4.792;2024-02-15T03:42:15;8.37;;;2.70;;
27893;SDS011;15240;50.812;4.792;2024-02-15T03:47:44;7.90;;;2.60;;
27893;SDS011;15240;50.812;4.792;2024-02-15T03:50:11;9.50;;;2.77;;
27893;SDS011;15240;50.812;4.792;2024-02-15T03:52:40;8.50;;;2.60;;
27893;SDS011;15240;50.812;4.792;2024-02-15T03:55:07;9.93;;;2.30;;
27893;SDS011;15240;50.812;4.792;2024-02-15T04:00:37;9.07;;;2.50;;
27893;SDS011;15240;50.812;4.792;2024-02-15T04:03:05;7.97;;;2.60;;
27893;SDS011;15240;50.812;4.792;2024-02-15T04:05:31;9.17;;;2.70;;
27893;SDS011;15240;50.812;4.792;2024-02-15T04:07:57;7.60;;;2.47;;
27893;SDS011;15240;50.812;4.792;2024-02-15T04:10:27;9.10;;;2.63;;
27893;SDS011;15240;50.812;4.792;2024-02-15T04:12:53;8.20;;;2.83;;
27893;SDS011;15240;50.812;4.792;2024-02-15T04:15:19;8.10;;;2.73;;
27893;SDS011;15240;50.812;4.792;2024-02-15T04:17:46;7.97;;;2.40;;
27893;SDS011;15240;50.812;4.792;2024-02-15T04:20:12;6.67;;;2.63;;
27893;SDS011;15240;50.812;4.792;2024-02-15T04:22:41;11.13;;;2.70;;
27893;SDS011;15240;50.812;4.792;2024-02-15T04:25:08;11.03;;;2.90;;
27893;SDS011;15240;50.812;4.792;2024-02-15T04:27:41;6.97;;;2.40;;
27893;SDS011;15240;50.812;4.792;2024-02-15T04:30:07;4.87;;;2.10;;
27893;SDS011;15240;50.812;4.792;2024-02-15T04:32:35;9.80;;;2.40;;
27893;SDS011;15240;50.812;4.792;2024-02-15T04:35:01;9.67;;;2.47;;
27893;SDS011;15240;50.812;4.792;2024-02-15T04:37:28;10.03;;;2.33;;
27893;SDS011;15240;50.812;4.792;2024-02-15T04:49:00;5.70;;;2.23;;
27893;SDS011;15240;50.812;4.792;2024-02-15T04:51:28;7.13;;;2.20;;
27893;SDS011;15240;50.812;4.792;2024-02-15T04:54:01;7.03;;;2.20;;
27893;SDS011;15240;50.812;4.792;2024-02-15T04:59:31;7.37;;;2.50;;
27893;SDS011;15240;50.812;4.792;2024-02-15T05:05:00;8.10;;;2.20;;
27893;SDS011;15240;50.812;4.792;2024-02-15T05:19:24;6.83;;;2.30;;
27893;SDS011;15240;50.812;4.792;2024-02-15T05:21:50;5.83;;;2.30;;
27893;SDS011;15240;50.812;4.792;2024-02-15T05:24:18;5.87;;;2.13;;
27893;SDS011;15240;50.812;4.792;2024-02-15T05:30:07;11.33;;;2.60;;
27893;SDS011;15240;50.812;4.792;2024-02-15T05:32:34;9.07;;;2.53;;
27893;SDS011;15240;50.812;4.792;2024-02-15T05:35:07;11.10;;;2.77;;
27893;SDS011;15240;50.812;4.792;2024-02-15T05:37:35;10.30;;;2.60;;
27893;SDS011;15240;50.812;4.792;2024-02-15T05:43:05;10.77;;;2.97;;
27893;SDS011;15240;50.812;4.792;2024-02-15T05:48:40;10.13;;;2.37;;
27893;SDS011;15240;50.812;4.792;2024-02-15T05:54:25;8.83;;;2.10;;
27893;SDS011;15240;50.812;4.792;2024-02-15T05:59:55;6.90;;;1.90;;
27893;SDS011;15240;50.812;4.792;2024-02-15T06:05:24;5.90;;;1.70;;
27893;SDS011;15240;50.812;4.792;2024-02-15T06:36:22;6.47;;;1.80;;
27893;SDS011;15240;50.812;4.792;2024-02-15T06:39:06;7.53;;;1.90;;
27893;SDS011;15240;50.812;4.792;2024-02-15T06:41:51;10.20;;;2.03;;
27893;SDS011;15240;50.812;4.792;2024-02-15T06:44:30;6.10;;;1.80;;
27893;SDS011;15240;50.812;4.792;2024-02-15T06:46:56;7.70;;;2.20;;
27893;SDS011;15240;50.812;4.792;2024-02-15T06:49:23;6.90;;;1.70;;
27893;SDS011;15240;50.812;4.792;2024-02-15T06:51:52;6.27;;;1.80;;
27893;SDS011;15240;50.812;4.792;2024-02-15T06:54:19;5.73;;;1.60;;
27893;SDS011;15240;50.812;4.792;2024-02-15T06:56:59;6.77;;;2.47;;
27893;SDS011;15240;50.812;4.792;2024-02-15T07:02:32;8.33;;;1.90;;
27893;SDS011;15240;50.812;4.792;2024-02-15T07:04:59;7.80;;;2.37;;
27893;SDS011;15240;50.812;4.792;2024-02-15T07:07:25;6.53;;;1.90;;
27893;SDS011;15240;50.812;4.792;2024-02-15T07:09:51;6.93;;;1.90;;
27893;SDS011;15240;50.812;4.792;2024-02-15T07:12:18;7.43;;;1.80;;
27893;SDS011;15240;50.812;4.792;2024-02-15T07:14:46;7.37;;;1.67;;
27893;SDS011;15240;50.812;4.792;2024-02-15T07:17:16;6.33;;;1.60;;
27893;SDS011;15240;50.812;4.792;2024-02-15T07:19:43;5.70;;;1.50;;
27893;SDS011;15240;50.812;4.792;2024-02-15T07:22:09;3.60;;;1.57;;
27893;SDS011;15240;50.812;4.792;2024-02-15T07:24:36;4.07;;;1.60;;
27893;SDS011;15240;50.812;4.792;2024-02-15T07:27:06;4.67;;;1.63;;
27893;SDS011;15240;50.812;4.792;2024-02-15T07:29:33;5.40;;;1.90;;
27893;SDS011;15240;50.812;4.792;2024-02-15T07:32:02;6.37;;;1.83;;
27893;SDS011;15240;50.812;4.792;2024-02-15T07:34:29;5.70;;;1.90;;
27893;SDS011;15240;50.812;4.792;2024-02-15T07:36:55;6.53;;;1.70;;
27893;SDS011;15240;50.812;4.792;2024-02-15T07:39:23;6.27;;;1.63;;
27893;SDS011;15240;50.812;4.792;2024-02-15T07:41:52;3.73;;;1.70;;
27893;SDS011;15240;50.812;4.792;2024-02-15T07:44:19;4.37;;;1.70;;
27893;SDS011;15240;50.812;4.792;2024-02-15T07:46:46;3.30;;;1.47;;
27893;SDS011;15240;50.812;4.792;2024-02-15T07:49:13;4.97;;;1.57;;
27893;SDS011;15240;50.812;4.792;2024-02-15T07:51:39;5.07;;;1.97;;
27893;SDS011;15240;50.812;4.792;2024-02-15T07:54:05;5.33;;;1.53;;
27893;SDS011;15240;50.812;4.792;2024-02-15T07:56:32;4.87;;;1.43;;
27893;SDS011;15240;50.812;4.792;2024-02-15T07:58:58;4.97;;;1.57;;
27893;SDS011;15240;50.812;4.792;2024-02-15T08:01:24;5.37;;;1.87;;
27893;SDS011;15240;50.812;4.792;2024-02-15T08:03:50;3.87;;;1.60;;
27893;SDS011;15240;50.812;4.792;2024-02-15T08:06:18;4.77;;;1.83;;
27893;SDS011;15240;50.812;4.792;2024-02-15T08:08:46;6.30;;;1.80;;
27893;SDS011;15240;50.812;4.792;2024-02-15T08:11:13;5.77;;;1.97;;
27893;SDS011;15240;50.812;4.792;2024-02-15T08:13:49;6.17;;;1.63;;
27893;SDS011;15240;50.812;4.792;2024-02-15T08:16:15;5.33;;;1.90;;
27893;SDS011;15240;50.812;4.792;2024-02-15T08:18:45;7.33;;;2.40;;
27893;SDS011;15240;50.812;4.792;2024-02-15T08:21:11;6.50;;;2.30;;
27893;SDS011;15240;50.812;4.792;2024-02-15T08:23:37;4.63;;;1.83;;
27893;SDS011;15240;50.812;4.792;2024-02-15T08:26:03;5.87;;;2.43;;
27893;SDS011;15240;50.812;4.792;2024-02-15T08:28:29;6.30;;;2.80;;
27893;SDS011;15240;50.812;4.792;2024-02-15T08:30:55;6.57;;;2.60;;
27893;SDS011;15240;50.812;4.792;2024-02-15T08:33:25;6.90;;;3.23;;
27893;SDS011;15240;50.812;4.792;2024-02-15T08:35:53;5.30;;;2.60;;
27893;SDS011;15240;50.812;4.792;2024-02-15T08:38:20;5.17;;;2.43;;
27893;SDS011;15240;50.812;4.792;2024-02-15T08:40:46;6.63;;;2.17;;
27893;SDS011;15240;50.812;4.792;2024-02-15T08:43:12;5.50;;;1.70;;
27893;SDS011;15240;50.812;4.792;2024-02-15T08:45:40;2.97;;;1.63;;
27893;SDS011;15240;50.812;4.792;2024-02-15T08:48:07;5.43;;;1.50;;
27893;SDS011;15240;50.812;4.792;2024-02-15T08:50:33;4.13;;;1.60;;
27893;SDS011;15240;50.812;4.792;2024-02-15T08:52:59;2.73;;;1.30;;
27893;SDS011;15240;50.812;4.792;2024-02-15T08:55:26;3.37;;;1.30;;
27893;SDS011;15240;50.812;4.792;2024-02-15T08:57:53;7.47;;;1.80;;
27893;SDS011;15240;50.812;4.792;2024-02-15T09:00:19;4.20;;;1.23;;
27893;SDS011;15240;50.812;4.792;2024-02-15T09:02:45;5.07;;;1.47;;
27893;SDS011;15240;50.812;4.792;2024-02-15T09:05:12;6.53;;;1.70;;
27893;SDS011;15240;50.812;4.792;2024-02-15T09:07:42;7.90;;;1.70;;
27893;SDS011;15240;50.812;4.792;2024-02-15T09:10:12;5.17;;;2.00;;
27893;SDS011;15240;50.812;4.792;2024-02-15T09:12:42;4.03;;;1.30;;
27893;SDS011;15240;50.812;4.792;2024-02-15T09:15:09;4.70;;;1.40;;
27893;SDS011;15240;50.812;4.792;2024-02-15T09:17:36;4.53;;;1.60;;
27893;SDS011;15240;50.812;4.792;2024-02-15T09:20:06;7.23;;;1.50;;
27893;SDS011;15240;50.812;4.792;2024-02-15T09:22:33;6.63;;;1.50;;
27893;SDS011;15240;50.812;4.792;2024-02-15T09:25:01;4.57;;;1.40;;
27893;SDS011;15240;50.812;4.792;2024-02-15T09:27:27;4.47;;;1.60;;
27893;SDS011;15240;50.812;4.792;2024-02-15T09:29:53;17.27;;;2.00;;
27893;SDS011;15240;50.812;4.792;2024-02-15T09:32:20;6.13;;;1.57;;
27893;SDS011;15240;50.812;4.792;2024-02-15T09:34:47;5.90;;;1.73;;
27893;SDS011;15240;50.812;4.792;2024-02-15T09:37:14;5.47;;;1.60;;
27893;SDS011;15240;50.812;4.792;2024-02-15T09:39:40;5.67;;;1.30;;
27893;SDS011;15240;50.812;4.792;2024-02-15T09:42:06;3.17;;;1.20;;
27893;SDS011;15240;50.812;4.792;2024-02-15T09:44:33;4.53;;;1.20;;
27893;SDS011;15240;50.812;4.792;2024-02-15T09:47:03;5.10;;;1.60;;
27893;SDS011;15240;50.812;4.792;2024-02-15T09:49:37;5.53;;;2.03;;
27893;SDS011;15240;50.812;4.792;2024-02-15T09:52:06;4.80;;;1.90;;
27893;SDS011;15240;50.812;4.792;2024-02-15T09:54:41;5.57;;;1.60;;
27893;SDS011;15240;50.812;4.792;2024-02-15T09:57:11;5.53;;;1.50;;
27893;SDS011;15240;50.812;4.792;2024-02-15T09:59:37;3.43;;;1.50;;
27893;SDS011;15240;50.812;4.792;2024-02-15T10:02:05;3.93;;;1.60;;
27893;SDS011;15240;50.812;4.792;2024-02-15T10:04:39;5.70;;;2.00;;
27893;SDS011;15240;50.812;4.792;2024-02-15T10:07:05;4.83;;;1.60;;
27893;SDS011;15240;50.812;4.792;2024-02-15T10:09:34;5.83;;;1.50;;
27893;SDS011;15240;50.812;4.792;2024-02-15T10:12:02;4.83;;;1.60;;
27893;SDS011;15240;50.812;4.792;2024-02-15T10:14:31;4.57;;;1.50;;
27893;SDS011;15240;50.812;4.792;2024-02-15T10:17:07;4.93;;;1.40;;
27893;SDS011;15240;50.812;4.792;2024-02-15T10:19:37;3.37;;;1.20;;
27893;SDS011;15240;50.812;4.792;2024-02-15T10:22:06;4.10;;;1.50;;
27893;SDS011;15240;50.812;4.792;2024-02-15T10:24:33;6.33;;;1.60;;
27893;SDS011;15240;50.812;4.792;2024-02-15T10:27:02;5.23;;;1.37;;
27893;SDS011;15240;50.812;4.792;2024-02-15T10:29:29;4.63;;;1.23;;
27893;SDS011;15240;50.812;4.792;2024-02-15T10:31:56;4.37;;;1.60;;
27893;SDS011;15240;50.812;4.792;2024-02-15T10:34:26;4.40;;;1.60;;
27893;SDS011;15240;50.812;4.792;2024-02-15T10:36:56;3.40;;;1.20;;
27893;SDS011;15240;50.812;4.792;2024-02-15T10:39:36;4.80;;;1.50;;
27893;SDS011;15240;50.812;4.792;2024-02-15T10:42:02;4.07;;;1.60;;
27893;SDS011;15240;50.812;4.792;2024-02-15T10:44:28;5.20;;;1.60;;
27893;SDS011;15240;50.812;4.792;2024-02-15T10:46:55;4.97;;;1.63;;
27893;SDS011;15240;50.812;4.792;2024-02-15T10:49:24;5.67;;;1.70;;
27893;SDS011;15240;50.812;4.792;2024-02-15T10:51:51;4.40;;;1.50;;
27893;SDS011;15240;50.812;4.792;2024-02-15T10:56:50;4.17;;;1.43;;
27893;SDS011;15240;50.812;4.792;2024-02-15T10:59:21;5.27;;;1.47;;
27893;SDS011;15240;50.812;4.792;2024-02-15T11:01:52;5.83;;;1.73;;
27893;SDS011;15240;50.812;4.792;2024-02-15T11:04:20;3.03;;;1.43;;
27893;SDS011;15240;50.812;4.792;2024-02-15T11:06:47;4.50;;;1.77;;
27893;SDS011;15240;50.812;4.792;2024-02-15T11:09:15;4.17;;;1.77;;
27893;SDS011;15240;50.812;4.792;2024-02-15T11:11:41;4.33;;;1.60;;
27893;SDS011;15240;50.812;4.792;2024-02-15T11:16:54;4.43;;;1.50;;
27893;SDS011;15240;50.812;4.792;2024-02-15T11:22:11;4.63;;;1.50;;
27893;SDS011;15240;50.812;4.792;2024-02-15T11:24:49;4.13;;;1.50;;
27893;SDS011;15240;50.812;4.792;2024-02-15T11:27:29;4.87;;;1.50;;
27893;SDS011;15240;50.812;4.792;2024-02-15T11:29:57;4.97;;;1.47;;
27893;SDS011;15240;50.812;4.792;2024-02-15T11:32:38;4.87;;;1.20;;
27893;SDS011;15240;50.812;4.792;2024-02-15T11:35:15;3.53;;;1.10;;
27893;SDS011;15240;50.812;4.792;2024-02-15T11:40:26;5.73;;;1.63;;
27893;SDS011;15240;50.812;4.792;2024-02-15T11:42:57;3.53;;;1.40;;
27893;SDS011;15240;50.812;4.792;2024-02-15T11:45:26;3.00;;;1.33;;
27893;SDS011;15240;50.812;4.792;2024-02-15T11:47:58;3.07;;;1.20;;
27893;SDS011;15240;50.812;4.792;2024-02-15T11:50:27;4.00;;;1.23;;
27893;SDS011;15240;50.812;4.792;2024-02-15T11:52:55;2.93;;;1.30;;
27893;SDS011;15240;50.812;4.792;2024-02-15T11:55:34;2.63;;;1.17;;
27893;SDS011;15240;50.812;4.792;2024-02-15T11:58:01;3.87;;;1.40;;
27893;SDS011;15240;50.812;4.792;2024-02-15T12:00:30;3.63;;;1.20;;
27893;SDS011;15240;50.812;4.792;2024-02-15T12:03:14;2.60;;;1.20;;
27893;SDS011;15240;50.812;4.792;2024-02-15T12:05:59;5.37;;;1.30;;
27893;SDS011;15240;50.812;4.792;2024-02-15T12:08:46;6.23;;;1.30;;
27893;SDS011;15240;50.812;4.792;2024-02-15T12:11:32;3.17;;;1.07;;
27893;SDS011;15240;50.812;4.792;2024-02-15T12:14:17;3.87;;;1.30;;
27893;SDS011;15240;50.812;4.792;2024-02-15T12:17:02;2.97;;;1.50;;
27893;SDS011;15240;50.812;4.792;2024-02-15T12:19:48;2.87;;;1.17;;
27893;SDS011;15240;50.812;4.792;2024-02-15T12:22:25;4.10;;;1.10;;
27893;SDS011;15240;50.812;4.792;2024-02-15T12:24:53;3.43;;;1.07;;
27893;SDS011;15240;50.812;4.792;2024-02-15T12:27:19;2.13;;;1.07;;
27893;SDS011;15240;50.812;4.792;2024-02-15T12:29:46;3.60;;;1.60;;
27893;SDS011;15240;50.812;4.792;2024-02-15T12:32:19;4.33;;;1.23;;
27893;SDS011;15240;50.812;4.792;2024-02-15T12:34:45;3.23;;;1.20;;
27893;SDS011;15240;50.812;4.792;2024-02-15T12:37:13;2.87;;;1.10;;
27893;SDS011;15240;50.812;4.792;2024-02-15T12:39:39;3.03;;;1.20;;
27893;SDS011;15240;50.812;4.792;2024-02-15T12:42:06;3.80;;;1.23;;
27893;SDS011;15240;50.812;4.792;2024-02-15T12:44:34;3.20;;;1.30;;
27893;SDS011;15240;50.812;4.792;2024-02-15T12:47:01;3.27;;;1.27;;
27893;SDS011;15240;50.812;4.792;2024-02-15T12:49:31;3.30;;;1.10;;
27893;SDS011;15240;50.812;4.792;2024-02-15T12:54:44;2.20;;;0.93;;
27893;SDS011;15240;50.812;4.792;2024-02-15T12:57:10;3.93;;;1.43;;
27893;SDS011;15240;50.812;4.792;2024-02-15T12:59:39;3.93;;;1.37;;
27893;SDS011;15240;50.812;4.792;2024-02-15T13:02:05;3.43;;;1.10;;
27893;SDS011;15240;50.812;4.792;2024-02-15T13:04:31;3.77;;;1.20;;
27893;SDS011;15240;50.812;4.792;2024-02-15T13:06:57;2.03;;;0.90;;
27893;SDS011;15240;50.812;4.792;2024-02-15T13:09:23;2.40;;;1.00;;
27893;SDS011;15240;50.812;4.792;2024-02-15T13:11:49;3.10;;;1.17;;
27893;SDS011;15240;50.812;4.792;2024-02-15T13:14:15;6.10;;;1.20;;
27893;SDS011;15240;50.812;4.792;2024-02-15T13:16:42;3.23;;;1.10;;
27893;SDS011;15240;50.812;4.792;2024-02-15T13:19:09;4.63;;;1.20;;
27893;SDS011;15240;50.812;4.792;2024-02-15T13:21:35;3.93;;;1.13;;
27893;SDS011;15240;50.812;4.792;2024-02-15T13:24:01;2.90;;;1.27;;
27893;SDS011;15240;50.812;4.792;2024-02-15T13:26:30;3.70;;;1.30;;
27893;SDS011;15240;50.812;4.792;2024-02-15T13:28:59;3.20;;;1.00;;
27893;SDS011;15240;50.812;4.792;2024-02-15T13:31:25;2.13;;;1.20;;
27893;SDS011;15240;50.812;4.792;2024-02-15T13:33:52;4.47;;;1.37;;
27893;SDS011;15240;50.812;4.792;2024-02-15T13:36:18;2.73;;;1.00;;
27893;SDS011;15240;50.812;4.792;2024-02-15T13:38:45;2.63;;;0.90;;
27893;SDS011;15240;50.812;4.792;2024-02-15T13:41:12;4.47;;;1.00;;
27893;SDS011;15240;50.812;4.792;2024-02-15T13:43:38;3.57;;;1.03;;
27893;SDS011;15240;50.812;4.792;2024-02-15T13:46:06;2.47;;;1.00;;
27893;SDS011;15240;50.812;4.792;2024-02-15T13:48:32;2.83;;;1.00;;
27893;SDS011;15240;50.812;4.792;2024-02-15T13:50:58;2.50;;;0.90;;
27893;SDS011;15240;50.812;4.792;2024-02-15T13:53:24;1.57;;;0.90;;
27893;SDS011;15240;50.812;4.792;2024-02-15T13:55:50;2.10;;;0.80;;
27893;SDS011;15240;50.812;4.792;2024-02-15T13:58:19;3.03;;;1.07;;
27893;SDS011;15240;50.812;4.792;2024-02-15T14:00:47;2.47;;;0.83;;
27893;SDS011;15240;50.812;4.792;2024-02-15T14:03:14;2.80;;;1.10;;
27893;SDS011;15240;50.812;4.792;2024-02-15T14:05:40;3.43;;;1.00;;
27893;SDS011;15240;50.812;4.792;2024-02-15T14:08:07;2.50;;;1.07;;
27893;SDS011;15240;50.812;4.792;2024-02-15T14:10:34;4.60;;;1.30;;
27893;SDS011;15240;50.812;4.792;2024-02-15T14:13:01;3.00;;;1.10;;
27893;SDS011;15240;50.812;4.792;2024-02-15T14:15:28;2.90;;;1.00;;
27893;SDS011;15240;50.812;4.792;2024-02-15T14:17:55;2.40;;;1.37;;
27893;SDS011;15240;50.812;4.792;2024-02-15T14:20:22;2.17;;;1.00;;
27893;SDS011;15240;50.812;4.792;2024-02-15T14:22:48;4.37;;;1.37;;
27893;SDS011;15240;50.812;4.792;2024-02-15T14:25:20;5.17;;;1.00;;
27893;SDS011;15240;50.812;4.792;2024-02-15T14:27:46;3.03;;;1.03;;
27893;SDS011;15240;50.812;4.792;2024-02-15T14:30:13;2.47;;;1.03;;
27893;SDS011;15240;50.812;4.792;2024-02-15T14:32:58;2.70;;;0.80;;
27893;SDS011;15240;50.812;4.792;2024-02-15T14:35:34;3.90;;;1.37;;
27893;SDS011;15240;50.812;4.792;2024-02-15T14:38:04;3.37;;;1.00;;
27893;SDS011;15240;50.812;4.792;2024-02-15T14:40:35;1.97;;;0.70;;
27893;SDS011;15240;50.812;4.792;2024-02-15T14:43:01;3.83;;;1.00;;
27893;SDS011;15240;50.812;4.792;2024-02-15T14:45:29;3.70;;;1.17;;
27893;SDS011;15240;50.812;4.792;2024-02-15T14:47:56;5.70;;;1.30;;
27893;SDS011;15240;50.812;4.792;2024-02-15T14:50:22;4.10;;;1.00;;
27893;SDS011;15240;50.812;4.792;2024-02-15T14:52:48;3.43;;;0.90;;
27893;SDS011;15240;50.812;4.792;2024-02-15T14:55:14;2.70;;;0.90;;
27893;SDS011;15240;50.812;4.792;2024-02-15T14:57:42;1.67;;;0.73;;
27893;SDS011;15240;50.812;4.792;2024-02-15T15:00:08;2.70;;;0.90;;
27893;SDS011;15240;50.812;4.792;2024-02-15T15:02:44;3.03;;;1.00;;
27893;SDS011;15240;50.812;4.792;2024-02-15T15:05:11;1.27;;;0.80;;
27893;SDS011;15240;50.812;4.792;2024-02-15T15:07:56;2.30;;;1.20;;
27893;SDS011;15240;50.812;4.792;2024-02-15T15:10:41;2.60;;;1.00;;
27893;SDS011;15240;50.812;4.792;2024-02-15T15:13:25;2.67;;;1.43;;
27893;SDS011;15240;50.812;4.792;2024-02-15T15:15:52;3.93;;;1.23;;
27893;SDS011;15240;50.812;4.792;2024-02-15T15:18:18;1.83;;;1.20;;
27893;SDS011;15240;50.812;4.792;2024-02-15T15:20:44;4.50;;;1.30;;
27893;SDS011;15240;50.812;4.792;2024-02-15T15:23:10;2.10;;;0.90;;
27893;SDS011;15240;50.812;4.792;2024-02-15T15:25:38;2.57;;;1.10;;
27893;SDS011;15240;50.812;4.792;2024-02-15T15:28:05;3.57;;;1.13;;
27893;SDS011;15240;50.812;4.792;2024-02-15T15:30:31;3.83;;;1.03;;
27893;SDS011;15240;50.812;4.792;2024-02-15T15:32:57;3.07;;;1.20;;
27893;SDS011;15240;50.812;4.792;2024-02-15T15:35:26;1.97;;;1.00;;
27893;SDS011;15240;50.812;4.792;2024-02-15T15:37:52;3.63;;;1.10;;
27893;SDS011;15240;50.812;4.792;2024-02-15T15:40:19;5.83;;;1.40;;
27893;SDS011;15240;50.812;4.792;2024-02-15T15:42:46;4.80;;;1.63;;
27893;SDS011;15240;50.812;4.792;2024-02-15T15:45:12;7.13;;;2.90;;
27893;SDS011;15240;50.812;4.792;2024-02-15T15:47:40;3.50;;;1.80;;
27893;SDS011;15240;50.812;4.792;2024-02-15T15:50:06;3.57;;;1.53;;
27893;SDS011;15240;50.812;4.792;2024-02-15T15:52:33;3.97;;;1.53;;
27893;SDS011;15240;50.812;4.792;2024-02-15T15:54:59;3.80;;;1.83;;
27893;SDS011;15240;50.812;4.792;2024-02-15T15:57:26;3.30;;;1.70;;
27893;SDS011;15240;50.812;4.792;2024-02-15T15:59:52;4.73;;;2.40;;
27893;SDS011;15240;50.812;4.792;2024-02-15T16:02:18;3.77;;;1.77;;
27893;SDS011;15240;50.812;4.792;2024-02-15T16:04:47;3.40;;;1.17;;
27893;SDS011;15240;50.812;4.792;2024-02-15T16:07:13;2.13;;;1.10;;
27893;SDS011;15240;50.812;4.792;2024-02-15T16:09:41;4.63;;;1.40;;
27893;SDS011;15240;50.812;4.792;2024-02-15T16:12:13;5.13;;;1.70;;
27893;SDS011;15240;50.812;4.792;2024-02-15T16:14:43;4.33;;;1.43;;
27893;SDS011;15240;50.812;4.792;2024-02-15T16:17:12;3.30;;;1.73;;
27893;SDS011;15240;50.812;4.792;2024-02-15T16:19:38;3.47;;;1.77;;
27893;SDS011;15240;50.812;4.792;2024-02-15T16:22:05;4.00;;;1.83;;
27893;SDS011;15240;50.812;4.792;2024-02-15T16:24:31;4.50;;;1.73;;
27893;SDS011;15240;50.812;4.792;2024-02-15T16:26:59;2.30;;;1.10;;
27893;SDS011;15240;50.812;4.792;2024-02-15T16:29:28;3.00;;;1.40;;
27893;SDS011;15240;50.812;4.792;2024-02-15T16:31:54;3.13;;;1.20;;
27893;SDS011;15240;50.812;4.792;2024-02-15T16:34:20;3.83;;;1.20;;
27893;SDS011;15240;50.812;4.792;2024-02-15T16:36:47;2.17;;;1.27;;
27893;SDS011;15240;50.812;4.792;2024-02-15T16:39:14;2.17;;;1.40;;
27893;SDS011;15240;50.812;4.792;2024-02-15T16:41:40;3.30;;;1.33;;
27893;SDS011;15240;50.812;4.792;2024-02-15T16:44:09;3.30;;;1.30;;
27893;SDS011;15240;50.812;4.792;2024-02-15T16:46:38;2.67;;;1.40;;
27893;SDS011;15240;50.812;4.792;2024-02-15T16:49:04;2.40;;;1.50;;
27893;SDS011;15240;50.812;4.792;2024-02-15T16:51:31;2.97;;;1.47;;
27893;SDS011;15240;50.812;4.792;2024-02-15T16:53:59;3.53;;;1.70;;
27893;SDS011;15240;50.812;4.792;2024-02-15T16:56:26;3.87;;;1.70;;
27893;SDS011;15240;50.812;4.792;2024-02-15T16:58:53;4.77;;;1.90;;